createdAt,value
2017-07-20T00:00:29.435Z,0
2017-07-20T00:01:30.137Z,0
2017-07-20T00:02:30.839Z,0
2017-07-20T00:03:31.552Z,0
2017-07-20T00:04:32.506Z,0
2017-07-20T00:05:33.210Z,0
2017-07-20T00:06:33.911Z,0
2017-07-20T00:07:34.614Z,0
2017-07-20T00:08:35.316Z,0
2017-07-20T00:09:36.273Z,0
2017-07-20T00:10:36.979Z,0
2017-07-20T00:11:37.678Z,0
2017-07-20T00:12:38.384Z,0
2017-07-20T00:13:39.083Z,0
2017-07-20T00:14:40.034Z,0
2017-07-20T00:15:40.743Z,0
2017-07-20T00:16:41.449Z,0
2017-07-20T00:17:42.151Z,0
2017-07-20T00:18:42.858Z,0
2017-07-20T00:19:43.811Z,0
2017-07-20T00:20:44.513Z,0
2017-07-20T00:21:45.214Z,0
2017-07-20T00:22:45.916Z,0
2017-07-20T00:23:46.621Z,0
2017-07-20T00:24:47.577Z,0
2017-07-20T00:25:48.277Z,0
2017-07-20T00:26:48.978Z,0
2017-07-20T00:27:49.688Z,0
2017-07-20T00:28:50.392Z,0
2017-07-20T00:29:51.344Z,0
2017-07-20T00:30:52.047Z,0
2017-07-20T00:31:52.748Z,0
2017-07-20T00:32:53.455Z,0
2017-07-20T00:33:54.171Z,0
2017-07-20T00:34:55.125Z,0
2017-07-20T00:35:55.828Z,0
2017-07-20T00:36:56.533Z,0
2017-07-20T00:37:57.236Z,0
2017-07-20T00:38:57.956Z,0
2017-07-20T00:39:58.910Z,0
2017-07-20T00:40:59.614Z,0
2017-07-20T00:42:00.313Z,0
2017-07-20T00:43:01.019Z,0
2017-07-20T00:44:01.728Z,0
2017-07-20T00:45:02.680Z,0
2017-07-20T00:46:03.396Z,0
2017-07-20T00:47:04.096Z,0
2017-07-20T00:48:04.801Z,0
2017-07-20T00:49:05.504Z,0
2017-07-20T00:50:06.454Z,0
2017-07-20T00:51:07.159Z,0
2017-07-20T00:52:07.862Z,0
2017-07-20T00:53:08.562Z,0
2017-07-20T00:54:09.267Z,0
2017-07-20T00:55:10.219Z,0
2017-07-20T00:56:10.918Z,0
2017-07-20T00:57:11.618Z,0
2017-07-20T00:58:12.323Z,0
2017-07-20T00:59:13.027Z,0
2017-07-20T01:00:13.981Z,0
2017-07-20T01:01:14.686Z,0
2017-07-20T01:02:15.384Z,0
2017-07-20T01:03:16.084Z,0
2017-07-20T01:04:16.787Z,0
2017-07-20T01:05:17.736Z,0
2017-07-20T01:06:18.439Z,0
2017-07-20T01:07:19.144Z,0
2017-07-20T01:08:19.851Z,0
2017-07-20T01:09:20.553Z,0
2017-07-20T01:10:21.515Z,0
2017-07-20T01:11:22.214Z,0
2017-07-20T01:12:22.919Z,0
2017-07-20T01:13:23.629Z,0
2017-07-20T01:14:24.337Z,0
2017-07-20T01:15:25.285Z,0
2017-07-20T01:16:25.995Z,0
2017-07-20T01:17:26.698Z,0
2017-07-20T01:18:27.402Z,0
2017-07-20T01:19:28.111Z,0
2017-07-20T01:20:29.066Z,0
2017-07-20T01:21:29.768Z,0
2017-07-20T01:22:30.472Z,0
2017-07-20T01:23:31.169Z,0
2017-07-20T01:24:31.869Z,0
2017-07-20T01:25:32.823Z,0
2017-07-20T01:26:33.525Z,0
2017-07-20T01:27:34.226Z,0
2017-07-20T01:28:34.928Z,0
2017-07-20T01:29:35.639Z,0
2017-07-20T01:30:36.590Z,0
2017-07-20T01:31:37.294Z,0
2017-07-20T01:32:37.996Z,0
2017-07-20T01:33:38.702Z,0
2017-07-20T01:34:39.405Z,0
2017-07-20T01:35:40.359Z,0
2017-07-20T01:36:41.063Z,0
2017-07-20T01:37:41.772Z,0
2017-07-20T01:38:42.469Z,0
2017-07-20T01:39:43.178Z,0
2017-07-20T01:40:44.129Z,0
2017-07-20T01:41:44.831Z,0
2017-07-20T01:42:45.533Z,0
2017-07-20T01:43:46.236Z,0
2017-07-20T01:44:46.937Z,0
2017-07-20T01:45:47.891Z,0
2017-07-20T01:46:48.593Z,0
2017-07-20T01:47:49.296Z,0
2017-07-20T01:48:49.996Z,0
2017-07-20T01:49:50.696Z,0
2017-07-20T01:50:51.651Z,0
2017-07-20T01:51:52.351Z,0
2017-07-20T01:52:53.053Z,0
2017-07-20T01:53:53.753Z,0
2017-07-20T01:54:54.456Z,0
2017-07-20T01:55:55.411Z,0
2017-07-20T01:56:56.111Z,0
2017-07-20T01:57:56.810Z,0
2017-07-20T01:58:57.514Z,0
2017-07-20T01:59:58.216Z,0
2017-07-20T02:00:59.170Z,0
2017-07-20T02:01:59.882Z,0
2017-07-20T02:03:00.586Z,0
2017-07-20T02:04:01.287Z,0
2017-07-20T02:05:01.989Z,0
2017-07-20T02:06:02.961Z,0
2017-07-20T02:07:03.668Z,0
2017-07-20T02:08:04.370Z,0
2017-07-20T02:09:05.071Z,0
2017-07-20T02:10:05.776Z,0
2017-07-20T02:11:06.736Z,0
2017-07-20T02:12:07.438Z,0
2017-07-20T02:13:08.143Z,0
2017-07-20T02:14:08.843Z,0
2017-07-20T02:15:09.546Z,0
2017-07-20T02:16:10.502Z,0
2017-07-20T02:17:11.207Z,0
2017-07-20T02:18:11.919Z,0
2017-07-20T02:19:12.620Z,0
2017-07-20T02:20:13.322Z,0
2017-07-20T02:21:14.276Z,0
2017-07-20T02:22:14.979Z,0
2017-07-20T02:23:15.685Z,0
2017-07-20T02:24:16.387Z,0
2017-07-20T02:25:17.092Z,0
2017-07-20T02:26:18.044Z,0
2017-07-20T02:27:18.747Z,0
2017-07-20T02:28:19.448Z,0
2017-07-20T02:29:20.149Z,0
2017-07-20T02:30:20.852Z,0
2017-07-20T02:31:21.554Z,0
2017-07-20T02:32:22.255Z,0
2017-07-20T02:33:22.955Z,0
2017-07-20T02:34:23.660Z,0
2017-07-20T02:35:24.361Z,0
2017-07-20T02:36:25.335Z,0
2017-07-20T02:37:26.047Z,0
2017-07-20T02:38:26.758Z,0
2017-07-20T02:39:27.462Z,0
2017-07-20T02:40:28.165Z,0
2017-07-20T02:41:29.115Z,0
2017-07-20T02:42:29.816Z,0
2017-07-20T02:43:30.515Z,0
2017-07-20T02:44:31.217Z,0
2017-07-20T02:45:31.930Z,0
2017-07-20T02:46:32.880Z,0
2017-07-20T02:47:33.584Z,0
2017-07-20T02:48:34.284Z,0
2017-07-20T02:49:34.981Z,0
2017-07-20T02:50:35.684Z,0
2017-07-20T02:51:36.634Z,0
2017-07-20T02:52:37.341Z,0
2017-07-20T02:53:38.044Z,0
2017-07-20T02:54:38.747Z,0
2017-07-20T02:55:39.449Z,0
2017-07-20T02:56:40.401Z,0
2017-07-20T02:57:41.106Z,0
2017-07-20T02:58:41.803Z,0
2017-07-20T02:59:42.505Z,0
2017-07-20T03:00:43.211Z,0
2017-07-20T03:01:44.168Z,0
2017-07-20T03:02:44.873Z,0
2017-07-20T03:03:45.577Z,0
2017-07-20T03:04:46.284Z,0
2017-07-20T03:05:46.997Z,0
2017-07-20T03:06:47.947Z,0
2017-07-20T03:07:48.653Z,0
2017-07-20T03:08:49.354Z,0
2017-07-20T03:09:50.056Z,0
2017-07-20T03:10:50.759Z,0
2017-07-20T03:11:51.709Z,0
2017-07-20T03:12:52.408Z,0
2017-07-20T03:13:53.106Z,0
2017-07-20T03:14:53.805Z,0
2017-07-20T03:15:54.509Z,0
2017-07-20T03:16:55.467Z,0
2017-07-20T03:17:56.170Z,0
2017-07-20T03:18:56.873Z,0
2017-07-20T03:19:57.589Z,0
2017-07-20T03:20:58.291Z,0
2017-07-20T03:21:59.242Z,0
2017-07-20T03:22:59.945Z,0
2017-07-20T03:24:00.663Z,0
2017-07-20T03:25:01.365Z,0
2017-07-20T03:26:02.068Z,0
2017-07-20T03:27:03.021Z,0
2017-07-20T03:28:03.727Z,0
2017-07-20T03:29:04.437Z,0
2017-07-20T03:30:05.147Z,0
2017-07-20T03:31:05.859Z,0
2017-07-20T03:32:06.815Z,0
2017-07-20T03:33:07.523Z,0
2017-07-20T03:34:08.225Z,0
2017-07-20T03:35:08.926Z,0
2017-07-20T03:36:09.630Z,0
2017-07-20T03:37:10.587Z,0
2017-07-20T03:38:11.292Z,0
2017-07-20T03:39:11.996Z,0
2017-07-20T03:40:12.697Z,0
2017-07-20T03:41:13.402Z,0
2017-07-20T03:42:14.108Z,5
2017-07-20T03:43:14.811Z,5
2017-07-20T03:44:15.516Z,5
2017-07-20T03:45:16.229Z,5
2017-07-20T03:46:16.937Z,5
2017-07-20T03:47:17.890Z,5
2017-07-20T03:48:18.592Z,5
2017-07-20T03:49:19.298Z,5
2017-07-20T03:50:20.000Z,5
2017-07-20T03:51:20.706Z,10
2017-07-20T03:52:21.665Z,10
2017-07-20T03:53:22.379Z,10
2017-07-20T03:54:23.084Z,10
2017-07-20T03:55:23.790Z,10
2017-07-20T03:56:24.492Z,10
2017-07-20T03:57:25.447Z,10
2017-07-20T03:58:26.164Z,10
2017-07-20T03:59:26.866Z,15
2017-07-20T04:00:27.573Z,15
2017-07-20T04:01:28.276Z,15
2017-07-20T04:02:28.984Z,15
2017-07-20T04:03:29.686Z,15
2017-07-20T04:04:30.392Z,15
2017-07-20T04:05:31.099Z,15
2017-07-20T04:06:31.803Z,20
2017-07-20T04:07:32.766Z,20
2017-07-20T04:08:33.476Z,20
2017-07-20T04:09:34.197Z,20
2017-07-20T04:10:34.904Z,20
2017-07-20T04:11:35.613Z,20
2017-07-20T04:12:36.567Z,20
2017-07-20T04:13:37.272Z,25
2017-07-20T04:14:37.980Z,25
2017-07-20T04:15:38.682Z,25
2017-07-20T04:16:39.396Z,25
2017-07-20T04:17:40.354Z,30
2017-07-20T04:18:41.066Z,30
2017-07-20T04:19:41.770Z,30
2017-07-20T04:20:42.478Z,30
2017-07-20T04:21:43.183Z,35
2017-07-20T04:22:44.135Z,35
2017-07-20T04:23:44.837Z,40
2017-07-20T04:24:45.544Z,40
2017-07-20T04:25:46.246Z,30
2017-07-20T04:26:46.950Z,40
2017-07-20T04:27:47.902Z,40
2017-07-20T04:28:48.605Z,40
2017-07-20T04:29:49.308Z,40
2017-07-20T04:30:50.010Z,40
2017-07-20T04:31:50.712Z,40
2017-07-20T04:32:51.665Z,40
2017-07-20T04:33:52.369Z,40
2017-07-20T04:34:53.092Z,40
2017-07-20T04:35:53.796Z,40
2017-07-20T04:36:54.503Z,45
2017-07-20T04:37:55.459Z,45
2017-07-20T04:38:56.161Z,45
2017-07-20T04:39:56.866Z,45
2017-07-20T04:40:57.575Z,45
2017-07-20T04:41:58.280Z,45
2017-07-20T04:42:59.236Z,50
2017-07-20T04:43:59.941Z,50
2017-07-20T04:45:00.656Z,50
2017-07-20T04:46:01.364Z,50
2017-07-20T04:47:02.069Z,55
2017-07-20T04:48:03.031Z,55
2017-07-20T04:49:03.735Z,60
2017-07-20T04:50:04.443Z,60
2017-07-20T04:51:05.146Z,60
2017-07-20T04:52:05.848Z,65
2017-07-20T04:53:06.803Z,65
2017-07-20T04:54:07.508Z,65
2017-07-20T04:55:08.219Z,65
2017-07-20T04:56:08.928Z,65
2017-07-20T04:57:09.635Z,65
2017-07-20T04:58:10.592Z,70
2017-07-20T04:59:11.299Z,70
2017-07-20T05:00:12.004Z,75
2017-07-20T05:01:12.707Z,80
2017-07-20T05:02:13.413Z,75
2017-07-20T05:03:14.368Z,75
2017-07-20T05:04:15.075Z,75
2017-07-20T05:05:15.778Z,75
2017-07-20T05:06:16.484Z,75
2017-07-20T05:07:17.193Z,80
2017-07-20T05:08:18.155Z,80
2017-07-20T05:09:18.863Z,80
2017-07-20T05:10:19.569Z,80
2017-07-20T05:11:20.274Z,80
2017-07-20T05:12:20.977Z,80
2017-07-20T05:13:21.931Z,80
2017-07-20T05:14:22.633Z,80
2017-07-20T05:15:23.338Z,80
2017-07-20T05:16:24.040Z,75
2017-07-20T05:17:24.747Z,75
2017-07-20T05:18:25.703Z,75
2017-07-20T05:19:26.411Z,75
2017-07-20T05:20:27.118Z,75
2017-07-20T05:21:27.824Z,75
2017-07-20T05:22:28.531Z,75
2017-07-20T05:23:29.489Z,75
2017-07-20T05:24:30.195Z,75
2017-07-20T05:25:30.903Z,75
2017-07-20T05:26:31.621Z,80
2017-07-20T05:27:32.329Z,80
2017-07-20T05:28:33.284Z,80
2017-07-20T05:29:33.995Z,75
2017-07-20T05:30:34.701Z,75
2017-07-20T05:31:35.408Z,70
2017-07-20T05:32:36.125Z,70
2017-07-20T05:33:36.831Z,65
2017-07-20T05:34:37.538Z,65
2017-07-20T05:35:38.253Z,65
2017-07-20T05:36:38.961Z,65
2017-07-20T05:37:39.667Z,70
2017-07-20T05:38:40.376Z,70
2017-07-20T05:39:41.083Z,75
2017-07-20T05:40:41.786Z,80
2017-07-20T05:41:42.499Z,80
2017-07-20T05:42:43.204Z,80
2017-07-20T05:43:44.159Z,85
2017-07-20T05:44:44.863Z,85
2017-07-20T05:45:45.571Z,80
2017-07-20T05:46:46.277Z,80
2017-07-20T05:47:46.981Z,80
2017-07-20T05:48:47.938Z,80
2017-07-20T05:49:48.640Z,80
2017-07-20T05:50:49.345Z,80
2017-07-20T05:51:50.049Z,80
2017-07-20T05:52:50.757Z,85
2017-07-20T05:53:51.711Z,80
2017-07-20T05:54:52.421Z,85
2017-07-20T05:55:53.133Z,85
2017-07-20T05:56:53.843Z,85
2017-07-20T05:57:54.549Z,85
2017-07-20T05:58:55.509Z,90
2017-07-20T05:59:56.215Z,95
2017-07-20T06:00:56.921Z,100
2017-07-20T06:01:57.628Z,100
2017-07-20T06:02:58.332Z,100
2017-07-20T06:03:59.293Z,105
2017-07-20T06:05:00.001Z,110
2017-07-20T06:06:00.708Z,120
2017-07-20T06:07:01.415Z,130
2017-07-20T06:08:02.125Z,130
2017-07-20T06:09:03.081Z,135
2017-07-20T06:10:03.807Z,135
2017-07-20T06:11:04.510Z,130
2017-07-20T06:12:05.214Z,135
2017-07-20T06:13:05.927Z,140
2017-07-20T06:14:06.885Z,150
2017-07-20T06:15:07.587Z,160
2017-07-20T06:16:08.298Z,160
2017-07-20T06:17:09.015Z,155
2017-07-20T06:18:09.719Z,155
2017-07-20T06:19:10.676Z,140
2017-07-20T06:20:11.386Z,130
2017-07-20T06:21:12.090Z,125
2017-07-20T06:22:12.795Z,115
2017-07-20T06:23:13.504Z,95
2017-07-20T06:24:14.458Z,85
2017-07-20T06:25:15.163Z,70
2017-07-20T06:26:15.871Z,65
2017-07-20T06:27:16.579Z,60
2017-07-20T06:28:17.292Z,55
2017-07-20T06:29:18.248Z,55
2017-07-20T06:30:18.954Z,55
2017-07-20T06:31:19.659Z,55
2017-07-20T06:32:20.367Z,65
2017-07-20T06:33:21.073Z,65
2017-07-20T06:34:22.033Z,70
2017-07-20T06:35:22.741Z,75
2017-07-20T06:36:23.448Z,75
2017-07-20T06:37:24.158Z,80
2017-07-20T06:38:24.868Z,85
2017-07-20T06:39:25.832Z,90
2017-07-20T06:40:26.545Z,90
2017-07-20T06:41:27.249Z,95
2017-07-20T06:42:27.957Z,95
2017-07-20T06:43:28.666Z,90
2017-07-20T06:44:29.630Z,90
2017-07-20T06:45:30.338Z,90
2017-07-20T06:46:31.068Z,90
2017-07-20T06:47:31.766Z,90
2017-07-20T06:48:32.477Z,90
2017-07-20T06:49:33.443Z,95
2017-07-20T06:50:34.153Z,95
2017-07-20T06:51:34.866Z,95
2017-07-20T06:52:35.570Z,95
2017-07-20T06:53:36.278Z,105
2017-07-20T06:54:37.235Z,105
2017-07-20T06:55:37.940Z,105
2017-07-20T06:56:38.647Z,105
2017-07-20T06:57:39.357Z,105
2017-07-20T06:58:40.079Z,105
2017-07-20T06:59:41.048Z,105
2017-07-20T07:00:41.756Z,105
2017-07-20T07:01:42.480Z,105
2017-07-20T07:02:43.182Z,105
2017-07-20T07:03:43.893Z,105
2017-07-20T07:04:44.850Z,110
2017-07-20T07:05:45.561Z,110
2017-07-20T07:06:46.268Z,105
2017-07-20T07:07:46.974Z,110
2017-07-20T07:08:47.695Z,110
2017-07-20T07:09:48.398Z,110
2017-07-20T07:10:49.104Z,110
2017-07-20T07:11:49.812Z,110
2017-07-20T07:12:50.521Z,110
2017-07-20T07:13:51.229Z,115
2017-07-20T07:14:52.196Z,115
2017-07-20T07:15:52.911Z,110
2017-07-20T07:16:53.642Z,115
2017-07-20T07:17:54.368Z,115
2017-07-20T07:18:55.078Z,110
2017-07-20T07:19:56.041Z,115
2017-07-20T07:20:56.745Z,115
2017-07-20T07:21:57.452Z,115
2017-07-20T07:22:58.154Z,115
2017-07-20T07:23:58.870Z,115
2017-07-20T07:24:59.829Z,120
2017-07-20T07:26:00.553Z,120
2017-07-20T07:27:01.261Z,120
2017-07-20T07:28:01.966Z,120
2017-07-20T07:29:02.674Z,120
2017-07-20T07:30:03.381Z,120
2017-07-20T07:31:04.088Z,120
2017-07-20T07:32:04.793Z,120
2017-07-20T07:33:05.509Z,120
2017-07-20T07:34:06.214Z,120
2017-07-20T07:35:07.186Z,120
2017-07-20T07:36:07.897Z,120
2017-07-20T07:37:08.610Z,120
2017-07-20T07:38:09.323Z,120
2017-07-20T07:39:10.042Z,120
2017-07-20T07:40:11.005Z,120
2017-07-20T07:41:11.716Z,120
2017-07-20T07:42:12.428Z,125
2017-07-20T07:43:13.135Z,125
2017-07-20T07:44:13.847Z,125
2017-07-20T07:45:14.808Z,125
2017-07-20T07:46:15.524Z,125
2017-07-20T07:47:16.229Z,125
2017-07-20T07:48:16.933Z,125
2017-07-20T07:49:17.642Z,125
2017-07-20T07:50:18.614Z,125
2017-07-20T07:51:19.320Z,125
2017-07-20T07:52:20.029Z,125
2017-07-20T07:53:20.740Z,130
2017-07-20T07:54:21.451Z,130
2017-07-20T07:55:22.404Z,140
2017-07-20T07:56:23.118Z,150
2017-07-20T07:57:23.832Z,155
2017-07-20T07:58:24.539Z,180
2017-07-20T07:59:25.246Z,195
2017-07-20T08:00:26.200Z,205
2017-07-20T08:01:26.915Z,215
2017-07-20T08:02:27.625Z,220
2017-07-20T08:03:28.338Z,205
2017-07-20T08:04:29.054Z,200
2017-07-20T08:05:30.014Z,200
2017-07-20T08:06:30.723Z,205
2017-07-20T08:07:31.428Z,210
2017-07-20T08:08:32.138Z,220
2017-07-20T08:09:32.859Z,215
2017-07-20T08:10:33.817Z,225
2017-07-20T08:11:34.558Z,225
2017-07-20T08:12:35.270Z,220
2017-07-20T08:13:35.982Z,225
2017-07-20T08:14:36.690Z,225
2017-07-20T08:15:37.657Z,230
2017-07-20T08:16:38.362Z,230
2017-07-20T08:17:39.068Z,240
2017-07-20T08:18:39.778Z,240
2017-07-20T08:19:40.488Z,240
2017-07-20T08:20:41.454Z,245
2017-07-20T08:21:42.159Z,240
2017-07-20T08:22:42.865Z,245
2017-07-20T08:23:43.583Z,245
2017-07-20T08:24:44.306Z,255
2017-07-20T08:25:45.277Z,255
2017-07-20T08:26:45.985Z,245
2017-07-20T08:27:46.688Z,250
2017-07-20T08:28:47.392Z,250
2017-07-20T08:29:48.098Z,250
2017-07-20T08:30:49.057Z,255
2017-07-20T08:31:49.760Z,255
2017-07-20T08:32:50.470Z,255
2017-07-20T08:33:51.196Z,255
2017-07-20T08:34:51.904Z,255
2017-07-20T08:35:52.861Z,250
2017-07-20T08:36:53.569Z,250
2017-07-20T08:37:54.279Z,245
2017-07-20T08:38:54.984Z,245
2017-07-20T08:39:55.690Z,250
2017-07-20T08:40:56.648Z,255
2017-07-20T08:41:57.352Z,250
2017-07-20T08:42:58.059Z,240
2017-07-20T08:43:58.774Z,240
2017-07-20T08:44:59.485Z,240
2017-07-20T08:46:00.446Z,230
2017-07-20T08:47:01.151Z,220
2017-07-20T08:48:01.860Z,215
2017-07-20T08:49:02.566Z,205
2017-07-20T08:50:03.274Z,195
2017-07-20T08:51:04.234Z,200
2017-07-20T08:52:04.939Z,195
2017-07-20T08:53:05.642Z,195
2017-07-20T08:54:06.349Z,190
2017-07-20T08:55:07.060Z,180
2017-07-20T08:56:08.019Z,175
2017-07-20T08:57:08.724Z,170
2017-07-20T08:58:09.431Z,165
2017-07-20T08:59:10.141Z,160
2017-07-20T09:00:10.848Z,165
2017-07-20T09:01:11.802Z,165
2017-07-20T09:02:12.509Z,170
2017-07-20T09:03:13.218Z,175
2017-07-20T09:04:13.930Z,190
2017-07-20T09:05:14.633Z,195
2017-07-20T09:06:15.598Z,200
2017-07-20T09:07:16.303Z,200
2017-07-20T09:08:17.006Z,205
2017-07-20T09:09:17.719Z,195
2017-07-20T09:10:18.443Z,190
2017-07-20T09:11:19.402Z,175
2017-07-20T09:12:20.115Z,180
2017-07-20T09:13:20.818Z,180
2017-07-20T09:14:21.526Z,180
2017-07-20T09:15:22.231Z,185
2017-07-20T09:16:23.245Z,185
2017-07-20T09:17:23.953Z,190
2017-07-20T09:18:24.668Z,200
2017-07-20T09:19:25.378Z,210
2017-07-20T09:20:26.082Z,210
2017-07-20T09:21:26.792Z,210
2017-07-20T09:22:27.506Z,215
2017-07-20T09:23:28.211Z,210
2017-07-20T09:24:28.916Z,210
2017-07-20T09:25:29.626Z,200
2017-07-20T09:26:30.584Z,210
2017-07-20T09:27:31.298Z,215
2017-07-20T09:28:32.013Z,225
2017-07-20T09:29:32.717Z,225
2017-07-20T09:30:33.421Z,225
2017-07-20T09:31:34.380Z,225
2017-07-20T09:32:35.091Z,225
2017-07-20T09:33:35.798Z,225
2017-07-20T09:34:36.515Z,230
2017-07-20T09:35:37.225Z,240
2017-07-20T09:36:38.187Z,240
2017-07-20T09:37:38.894Z,250
2017-07-20T09:38:39.604Z,265
2017-07-20T09:39:40.319Z,280
2017-07-20T09:40:41.029Z,300
2017-07-20T09:41:41.987Z,305
2017-07-20T09:42:42.693Z,320
2017-07-20T09:43:43.400Z,330
2017-07-20T09:44:44.118Z,335
2017-07-20T09:45:44.826Z,330
2017-07-20T09:46:45.798Z,305
2017-07-20T09:47:46.506Z,300
2017-07-20T09:48:47.213Z,300
2017-07-20T09:49:47.924Z,300
2017-07-20T09:50:48.635Z,305
2017-07-20T09:51:49.596Z,300
2017-07-20T09:52:50.304Z,315
2017-07-20T09:53:51.021Z,320
2017-07-20T09:54:51.739Z,325
2017-07-20T09:55:52.464Z,335
2017-07-20T09:56:53.425Z,345
2017-07-20T09:57:54.132Z,355
2017-07-20T09:58:54.839Z,345
2017-07-20T09:59:55.546Z,345
2017-07-20T10:00:56.252Z,345
2017-07-20T10:01:57.210Z,340
2017-07-20T10:02:57.919Z,335
2017-07-20T10:03:58.628Z,340
2017-07-20T10:04:59.344Z,350
2017-07-20T10:06:00.051Z,360
2017-07-20T10:07:00.765Z,370
2017-07-20T10:08:01.469Z,375
2017-07-20T10:09:02.177Z,370
2017-07-20T10:10:02.887Z,370
2017-07-20T10:11:03.598Z,365
2017-07-20T10:12:04.554Z,350
2017-07-20T10:13:05.264Z,345
2017-07-20T10:14:05.972Z,345
2017-07-20T10:15:06.680Z,340
2017-07-20T10:16:07.385Z,340
2017-07-20T10:17:08.341Z,345
2017-07-20T10:18:09.052Z,340
2017-07-20T10:19:09.748Z,335
2017-07-20T10:20:10.458Z,335
2017-07-20T10:21:11.169Z,345
2017-07-20T10:22:12.128Z,345
2017-07-20T10:23:12.842Z,370
2017-07-20T10:24:13.548Z,380
2017-07-20T10:25:14.254Z,395
2017-07-20T10:26:14.961Z,400
2017-07-20T10:27:15.920Z,395
2017-07-20T10:28:16.629Z,405
2017-07-20T10:29:17.337Z,405
2017-07-20T10:30:18.043Z,390
2017-07-20T10:31:18.752Z,390
2017-07-20T10:32:19.721Z,390
2017-07-20T10:33:20.439Z,395
2017-07-20T10:34:21.155Z,405
2017-07-20T10:35:21.864Z,410
2017-07-20T10:36:22.576Z,415
2017-07-20T10:37:23.532Z,425
2017-07-20T10:38:24.242Z,440
2017-07-20T10:39:24.949Z,415
2017-07-20T10:40:25.657Z,410
2017-07-20T10:41:26.330Z,400
2017-07-20T10:42:27.312Z,400
2017-07-20T10:43:28.025Z,400
2017-07-20T10:44:28.739Z,395
2017-07-20T10:45:29.448Z,390
2017-07-20T10:46:30.156Z,345
2017-07-20T10:47:31.115Z,265
2017-07-20T10:48:31.829Z,215
2017-07-20T10:49:32.540Z,175
2017-07-20T10:50:33.249Z,160
2017-07-20T10:51:33.955Z,135
2017-07-20T10:52:34.917Z,110
2017-07-20T10:53:35.621Z,95
2017-07-20T10:54:36.325Z,90
2017-07-20T10:55:37.032Z,95
2017-07-20T10:56:37.736Z,100
2017-07-20T10:57:38.692Z,110
2017-07-20T10:58:39.403Z,125
2017-07-20T10:59:40.109Z,150
2017-07-20T11:00:40.816Z,170
2017-07-20T11:01:41.526Z,185
2017-07-20T11:02:42.486Z,205
2017-07-20T11:03:43.197Z,230
2017-07-20T11:04:43.917Z,240
2017-07-20T11:05:44.632Z,235
2017-07-20T11:06:45.338Z,230
2017-07-20T11:07:46.298Z,235
2017-07-20T11:08:47.008Z,225
2017-07-20T11:09:47.714Z,215
2017-07-20T11:10:48.423Z,215
2017-07-20T11:11:49.131Z,215
2017-07-20T11:12:50.087Z,225
2017-07-20T11:13:50.796Z,250
2017-07-20T11:14:51.503Z,270
2017-07-20T11:15:52.212Z,285
2017-07-20T11:16:52.925Z,295
2017-07-20T11:17:53.883Z,285
2017-07-20T11:18:54.597Z,265
2017-07-20T11:19:55.308Z,250
2017-07-20T11:20:56.020Z,220
2017-07-20T11:21:56.733Z,200
2017-07-20T11:22:57.443Z,195
2017-07-20T11:23:58.154Z,185
2017-07-20T11:24:58.808Z,185
2017-07-20T11:25:59.560Z,185
2017-07-20T11:27:00.270Z,180
2017-07-20T11:28:01.244Z,175
2017-07-20T11:29:01.954Z,165
2017-07-20T11:30:02.661Z,150
2017-07-20T11:31:03.375Z,135
2017-07-20T11:32:04.083Z,125
2017-07-20T11:33:05.040Z,115
2017-07-20T11:34:05.750Z,110
2017-07-20T11:35:06.460Z,115
2017-07-20T11:36:07.175Z,125
2017-07-20T11:37:07.881Z,130
2017-07-20T11:38:08.840Z,130
2017-07-20T11:39:09.551Z,130
2017-07-20T11:40:10.266Z,130
2017-07-20T11:41:10.982Z,130
2017-07-20T11:42:11.688Z,130
2017-07-20T11:43:12.661Z,135
2017-07-20T11:44:13.367Z,130
2017-07-20T11:45:14.074Z,130
2017-07-20T11:46:14.803Z,125
2017-07-20T11:47:15.512Z,135
2017-07-20T11:48:16.469Z,140
2017-07-20T11:49:17.175Z,145
2017-07-20T11:50:17.883Z,135
2017-07-20T11:51:18.601Z,130
2017-07-20T11:52:19.320Z,130
2017-07-20T11:53:20.280Z,115
2017-07-20T11:54:20.993Z,110
2017-07-20T11:55:21.702Z,110
2017-07-20T11:56:22.417Z,115
2017-07-20T11:57:23.132Z,120
2017-07-20T11:58:24.087Z,125
2017-07-20T11:59:24.805Z,125
2017-07-20T12:00:25.513Z,130
2017-07-20T12:01:26.225Z,140
2017-07-20T12:02:26.934Z,145
2017-07-20T12:03:27.648Z,155
2017-07-20T12:04:28.354Z,165
2017-07-20T12:05:29.063Z,170
2017-07-20T12:06:29.774Z,175
2017-07-20T12:07:30.479Z,185
2017-07-20T12:08:31.436Z,190
2017-07-20T12:09:32.151Z,195
2017-07-20T12:10:32.859Z,190
2017-07-20T12:11:33.566Z,190
2017-07-20T12:12:34.283Z,195
2017-07-20T12:13:35.239Z,190
2017-07-20T12:14:35.949Z,175
2017-07-20T12:15:36.680Z,155
2017-07-20T12:16:37.394Z,145
2017-07-20T12:17:38.104Z,135
2017-07-20T12:18:39.079Z,135
2017-07-20T12:19:39.793Z,125
2017-07-20T12:20:40.499Z,115
2017-07-20T12:21:41.220Z,105
2017-07-20T12:22:41.937Z,100
2017-07-20T12:23:42.893Z,100
2017-07-20T12:24:43.605Z,95
2017-07-20T12:25:44.326Z,90
2017-07-20T12:26:45.029Z,85
2017-07-20T12:27:45.739Z,80
2017-07-20T12:28:46.694Z,80
2017-07-20T12:29:47.406Z,75
2017-07-20T12:30:48.125Z,75
2017-07-20T12:31:48.838Z,75
2017-07-20T12:32:49.545Z,70
2017-07-20T12:33:50.502Z,70
2017-07-20T12:34:51.209Z,65
2017-07-20T12:35:51.917Z,65
2017-07-20T12:36:52.624Z,60
2017-07-20T12:37:53.330Z,60
2017-07-20T12:38:54.290Z,55
2017-07-20T12:39:54.997Z,50
2017-07-20T12:40:55.705Z,50
2017-07-20T12:41:56.408Z,50
2017-07-20T12:42:57.109Z,55
2017-07-20T12:43:58.066Z,55
2017-07-20T12:44:58.773Z,55
2017-07-20T12:45:59.483Z,55
2017-07-20T12:47:00.189Z,55
2017-07-20T12:48:00.902Z,55
2017-07-20T12:49:01.859Z,50
2017-07-20T12:50:02.573Z,50
2017-07-20T12:51:03.283Z,50
2017-07-20T12:52:03.917Z,45
2017-07-20T12:53:04.695Z,45
2017-07-20T12:54:05.656Z,45
2017-07-20T12:55:06.362Z,45
2017-07-20T12:56:07.067Z,40
2017-07-20T12:57:07.775Z,40
2017-07-20T12:58:08.481Z,40
2017-07-20T12:59:09.437Z,40
2017-07-20T13:00:10.143Z,40
2017-07-20T13:01:10.848Z,40
2017-07-20T13:02:11.555Z,40
2017-07-20T13:03:12.259Z,40
2017-07-20T13:04:13.212Z,40
2017-07-20T13:05:13.923Z,40
2017-07-20T13:06:14.630Z,40
2017-07-20T13:07:15.334Z,45
2017-07-20T13:08:16.047Z,45
2017-07-20T13:09:16.757Z,45
2017-07-20T13:10:17.476Z,50
2017-07-20T13:11:18.182Z,50
2017-07-20T13:12:18.888Z,55
2017-07-20T13:13:19.595Z,65
2017-07-20T13:14:20.548Z,70
2017-07-20T13:15:21.260Z,70
2017-07-20T13:16:21.966Z,65
2017-07-20T13:17:22.678Z,65
2017-07-20T13:18:23.384Z,65
2017-07-20T13:19:24.343Z,70
2017-07-20T13:20:25.049Z,70
2017-07-20T13:21:25.754Z,75
2017-07-20T13:22:26.472Z,80
2017-07-20T13:23:27.186Z,75
2017-07-20T13:24:28.151Z,70
2017-07-20T13:25:28.863Z,60
2017-07-20T13:26:29.571Z,55
2017-07-20T13:27:30.280Z,50
2017-07-20T13:28:30.987Z,50
2017-07-20T13:29:31.946Z,50
2017-07-20T13:30:32.657Z,50
2017-07-20T13:31:33.361Z,50
2017-07-20T13:32:34.066Z,50
2017-07-20T13:33:34.771Z,55
2017-07-20T13:34:35.727Z,60
2017-07-20T13:35:36.434Z,70
2017-07-20T13:36:37.140Z,75
2017-07-20T13:37:37.844Z,80
2017-07-20T13:38:38.548Z,85
2017-07-20T13:39:39.504Z,85
2017-07-20T13:40:40.209Z,85
2017-07-20T13:41:40.916Z,80
2017-07-20T13:42:41.617Z,80
2017-07-20T13:43:42.325Z,80
2017-07-20T13:44:43.332Z,80
2017-07-20T13:45:44.035Z,85
2017-07-20T13:46:44.739Z,85
2017-07-20T13:47:45.442Z,90
2017-07-20T13:48:46.150Z,95
2017-07-20T13:49:47.105Z,100
2017-07-20T13:50:47.810Z,105
2017-07-20T13:51:48.517Z,110
2017-07-20T13:52:49.228Z,110
2017-07-20T13:53:49.936Z,105
2017-07-20T13:54:50.897Z,95
2017-07-20T13:55:51.603Z,90
2017-07-20T13:56:52.305Z,85
2017-07-20T13:57:53.012Z,80
2017-07-20T13:58:53.717Z,70
2017-07-20T13:59:54.676Z,65
2017-07-20T14:00:55.382Z,60
2017-07-20T14:01:56.096Z,55
2017-07-20T14:02:56.810Z,55
2017-07-20T14:03:57.519Z,55
2017-07-20T14:04:58.479Z,55
2017-07-20T14:05:59.182Z,60
2017-07-20T14:06:59.897Z,60
2017-07-20T14:08:00.605Z,65
2017-07-20T14:09:01.310Z,70
2017-07-20T14:10:02.274Z,75
2017-07-20T14:11:03.001Z,80
2017-07-20T14:12:03.705Z,80
2017-07-20T14:13:04.412Z,80
2017-07-20T14:14:05.115Z,85
2017-07-20T14:15:06.068Z,85
2017-07-20T14:16:06.772Z,85
2017-07-20T14:17:07.475Z,85
2017-07-20T14:18:08.179Z,85
2017-07-20T14:19:08.886Z,85
2017-07-20T14:20:09.844Z,85
2017-07-20T14:21:10.549Z,85
2017-07-20T14:22:11.262Z,90